Last 24 Hours

Canyon Lodge - 8,343ft

5 Minute Data | America/Los_Angeles
as of 5/5/26 8:03 PM PDT
Date & Time Temp (°F) RH (%) Dew Pt (°F) Wet Bulb (°F) Wind Dir (°) Wind Spd (mph) Wind Gust (mph) Wind Gst Dir (°)
5/5/26 - 2000 39.5 36 14.6 31.4 W | 262 0.3 1.6 WSW | 256
5/5/26 - 1955 39.2 35 14.1 31.1 SW | 220 0.0 0.3 SSW | 210
5/5/26 - 1950 39.3 36 14.4 31.2 N | 0 0.0 0.0 SW | 228
5/5/26 - 1945 39.9 37 15.4 31.8 WSW | 257 0.5 1.9 NW | 307
5/5/26 - 1940 39.5 37 15.3 31.5 WSW | 249 0.5 3.0 SSW | 200
5/5/26 - 1935 39.8 37 15.8 31.8 W | 266 0.1 1.4 W | 262
5/5/26 - 1930 40.1 37 16.1 32.1 W | 280 0.1 1.5 WNW | 288
5/5/26 - 1925 41.2 36 16.4 32.7 NW | 316 0.4 2.3 NNW | 328
5/5/26 - 1920 41.8 35 16.1 33.0 NNW | 334 2.1 5.1 N | 0
5/5/26 - 1915 41.9 35 16.2 33.1 NNW | 339 2.3 5.4 NNW | 338
5/5/26 - 1910 42.1 35 16.7 33.4 NW | 324 2.7 6.4 NW | 311
5/5/26 - 1905 42.2 35 16.4 33.4 NNW | 334 1.9 5.7 NNE | 15
5/5/26 - 1900 42.7 35 16.9 33.8 N | 354 3.2 8.9 NW | 311
5/5/26 - 1855 42.6 37 17.8 33.9 NW | 320 3.5 9.0 NW | 307
5/5/26 - 1850 42.7 36 17.8 34.0 NNW | 344 2.2 7.6 NW | 314
5/5/26 - 1845 42.7 36 17.3 33.8 NNW | 346 2.7 8.3 NW | 314
5/5/26 - 1840 42.7 36 17.4 33.9 NW | 324 2.7 8.0 WNW | 298
5/5/26 - 1835 42.7 36 17.9 34.0 NW | 319 4.9 12.0 NW | 315
5/5/26 - 1830 42.7 37 18.5 34.1 NW | 316 4.1 8.7 NW | 306
5/5/26 - 1825 42.7 37 18.0 34.0 NNW | 333 3.3 8.7 N | 8
5/5/26 - 1820 42.9 37 18.7 34.3 NNW | 327 1.9 4.8 WNW | 284
5/5/26 - 1815 42.7 38 18.8 34.2 NW | 313 5.7 10.1 NW | 324
5/5/26 - 1810 42.7 37 18.4 34.1 NNW | 328 4.5 11.8 NW | 319
5/5/26 - 1805 42.7 37 18.2 34.1 NNW | 334 3.4 9.1 NW | 316
5/5/26 - 1800 43.0 37 18.9 34.4 NW | 316 3.7 6.8 WNW | 285
5/5/26 - 1755 43.0 37 18.9 34.4 NW | 313 3.9 10.8 NW | 315
5/5/26 - 1750 43.0 37 18.3 34.3 NNW | 330 3.8 7.7 NW | 317
5/5/26 - 1745 43.8 37 19.0 34.8 WNW | 302 2.7 11.4 NW | 310
5/5/26 - 1740 44.3 36 19.4 35.3 N | 7 0.6 4.4 NNW | 348
5/5/26 - 1735 44.0 37 19.3 35.0 NNW | 343 0.3 2.2 NNW | 344
5/5/26 - 1730 43.6 37 18.8 34.7 N | 351 0.2 1.3 NNE | 23
5/5/26 - 1725 42.8 36 17.8 34.0 N | 352 3.5 8.3 N | 5
5/5/26 - 1720 43.6 37 19.0 34.8 NW | 310 1.7 6.2 WNW | 299
5/5/26 - 1715 43.0 37 18.6 34.4 NW | 318 3.1 8.9 NW | 320
5/5/26 - 1710 43.4 37 18.8 34.6 NW | 305 2.4 7.3 NW | 308
5/5/26 - 1705 42.5 37 17.9 33.9 NNW | 346 4.7 8.7 NNE | 16
5/5/26 - 1700 42.6 38 18.8 34.1 NNW | 329 4.3 8.3 NNW | 347
5/5/26 - 1655 42.3 38 18.6 34.0 NW | 326 5.7 10.5 NNW | 337
5/5/26 - 1650 43.0 39 19.6 34.6 NW | 322 1.4 6.6 NW | 317
5/5/26 - 1645 42.6 39 19.3 34.3 WNW | 293 1.9 4.4 NW | 304
5/5/26 - 1640 41.8 39 18.5 33.6 NW | 311 2.1 6.0 NW | 314
5/5/26 - 1635 42.1 38 18.4 33.8 WSW | 252 0.8 5.6 NW | 316
5/5/26 - 1630 40.4 38 17.0 32.5 NNW | 338 4.9 8.6 NNW | 340
5/5/26 - 1625 40.4 38 16.9 32.4 NNW | 329 5.0 13.4 NNW | 331
5/5/26 - 1620 41.4 39 18.0 33.3 WNW | 300 1.4 4.4 NNW | 332
5/5/26 - 1615 40.3 38 16.8 32.4 WSW | 256 2.4 6.1 SSW | 201
5/5/26 - 1610 40.4 38 16.7 32.4 NW | 321 2.1 9.6 NW | 323
5/5/26 - 1605 39.5 38 15.8 31.7 WNW | 285 2.6 10.5 NW | 318
5/5/26 - 1600 39.5 38 16.0 31.7 W | 275 1.3 5.5 NW | 310
5/5/26 - 1555 38.4 38 15.2 30.8 NNW | 327 3.0 7.8 NNW | 331
5/5/26 - 1550 38.2 38 15.1 30.7 NW | 315 4.8 12.0 NW | 316
5/5/26 - 1545 38.5 38 15.4 30.9 NW | 326 5.3 13.9 N | 0
5/5/26 - 1540 38.9 38 15.6 31.3 NW | 317 2.8 8.1 NW | 307
5/5/26 - 1535 39.2 38 16.0 31.5 NW | 314 3.6 9.3 NW | 312
5/5/26 - 1530 39.4 38 16.2 31.7 NW | 316 2.7 8.6 NW | 308
5/5/26 - 1525 39.2 38 15.8 31.4 NW | 313 5.4 11.4 NW | 317
5/5/26 - 1520 39.6 38 16.2 31.8 NW | 314 6.3 13.6 NW | 316
5/5/26 - 1515 40.3 38 16.5 32.3 N | 350 4.7 13.3 NW | 306
5/5/26 - 1510 40.2 38 16.9 32.3 NNW | 338 3.9 10.3 NW | 308
5/5/26 - 1505 39.9 39 17.0 32.1 NW | 319 5.9 12.8 NW | 306
5/5/26 - 1500 40.2 39 17.0 32.3 NW | 326 3.8 10.0 N | 10
5/5/26 - 1455 40.5 38 16.8 32.4 N | 6 6.0 11.0 N | 350
5/5/26 - 1450 40.8 39 17.6 32.8 NNW | 332 5.1 11.4 N | 0
5/5/26 - 1445 40.8 39 17.6 32.8 NNW | 347 2.6 8.0 NNE | 17
5/5/26 - 1440 39.6 39 16.6 31.9 NW | 308 0.4 2.8 NW | 307
5/5/26 - 1435 38.9 39 15.9 31.3 S | 190 0.6 3.2 SSW | 198
5/5/26 - 1430 38.6 40 16.1 31.2 WNW | 303 0.6 2.8 NW | 317
5/5/26 - 1425 39.1 39 16.4 31.6 NNW | 343 2.2 7.1 NNW | 336
5/5/26 - 1420 40.1 39 17.3 32.4 NW | 317 1.9 4.7 WNW | 292
5/5/26 - 1415 39.3 39 16.4 31.6 NW | 325 4.2 7.9 NW | 314
5/5/26 - 1410 39.3 39 16.2 31.6 NW | 325 3.0 7.0 NW | 311
5/5/26 - 1405 39.4 39 16.4 31.7 NW | 316 4.3 7.8 NW | 305
5/5/26 - 1400 39.9 39 16.7 32.1 NNW | 328 4.6 9.8 NW | 324
5/5/26 - 1355 40.3 38 16.7 32.3 NW | 320 5.4 8.8 NW | 306
5/5/26 - 1350 41.2 37 16.9 32.9 NNE | 15 2.6 7.5 NE | 38
5/5/26 - 1345 40.2 37 16.0 32.1 NNE | 18 3.0 7.2 NNW | 342
5/5/26 - 1340 39.8 38 16.0 31.8 N | 351 2.3 6.6 N | 353
5/5/26 - 1335 38.0 36 13.7 30.3 NNE | 19 4.4 8.9 NNE | 31
5/5/26 - 1330 38.2 37 14.3 30.6 N | 11 3.4 6.9 NNE | 28
5/5/26 - 1325 38.8 38 15.4 31.1 NNW | 339 3.6 8.1 NW | 318
5/5/26 - 1320 39.0 36 14.6 31.1 NE | 34 1.6 4.3 NE | 34
5/5/26 - 1315 38.1 37 14.2 30.4 N | 358 1.9 5.4 NNE | 28
5/5/26 - 1310 37.8 37 13.7 30.1 N | 3 1.6 6.3 NNE | 27
5/5/26 - 1305 37.1 36 12.7 29.5 NNE | 15 1.7 4.6 NE | 52
5/5/26 - 1300 37.1 37 13.5 29.7 NNE | 20 3.0 7.3 NNE | 16
5/5/26 - 1255 37.4 38 14.4 30.1 NNW | 348 1.7 3.8 N | 5
5/5/26 - 1250 38.1 38 14.9 30.6 NW | 308 1.4 9.4 NW | 310
5/5/26 - 1245 37.3 38 14.0 29.9 NNW | 341 3.5 10.0 NW | 315
5/5/26 - 1240 37.9 38 14.5 30.4 N | 7 0.6 3.8 NE | 48
5/5/26 - 1235 37.2 38 14.0 29.8 NW | 323 2.5 8.5 NW | 309
5/5/26 - 1230 36.6 38 13.2 29.3 N | 356 2.2 5.4 NNE | 15
5/5/26 - 1225 36.6 38 13.6 29.4 N | 350 3.9 8.8 NNW | 327
5/5/26 - 1220 35.9 39 13.4 28.9 NNW | 346 2.4 7.8 NW | 320
5/5/26 - 1215 35.0 39 12.7 28.2 NNW | 331 3.6 7.0 NW | 310
5/5/26 - 1210 34.7 40 12.6 28.0 NW | 322 3.2 5.8 NW | 322
5/5/26 - 1205 34.6 39 12.2 27.9 NNW | 331 3.5 9.8 NW | 308
5/5/26 - 1200 34.5 39 12.2 27.8 NW | 317 3.6 6.6 NW | 305
5/5/26 - 1155 34.7 38 11.9 27.9 NNW | 347 0.8 3.4 NW | 316
5/5/26 - 1150 34.7 39 12.1 27.9 NNW | 340 0.0 0.5 N | 0
5/5/26 - 1145 34.5 38 11.4 27.6 NNW | 334 0.2 2.1 NNW | 328
5/5/26 - 1140 34.0 38 11.0 27.2 W | 261 0.1 1.7 WSW | 256
5/5/26 - 1135 33.7 37 10.3 26.9 N | 11 0.1 0.9 NNE | 31
5/5/26 - 1130 33.8 39 11.2 27.2 NW | 321 0.3 1.6 W | 278
5/5/26 - 1125 33.5 41 12.1 27.2 NNW | 329 1.6 4.5 WNW | 300
5/5/26 - 1120 33.6 41 12.3 27.3 NW | 315 1.0 3.8 NNW | 331
5/5/26 - 1115 33.5 40 12.0 27.2 NW | 318 1.0 5.2 NW | 311
5/5/26 - 1110 33.5 40 11.7 27.1 NNW | 333 0.5 2.6 NNE | 21
5/5/26 - 1105 33.3 39 11.3 26.9 NW | 318 0.8 3.5 WNW | 302
5/5/26 - 1100 33.2 38 10.4 26.6 N | 10 1.7 4.2 N | 5
5/5/26 - 1055 33.1 40 11.3 26.7 NNW | 334 3.0 6.8 WNW | 300
5/5/26 - 1050 33.1 40 11.4 26.7 NW | 310 2.0 5.7 NW | 318
5/5/26 - 1045 33.1 41 11.8 26.8 NW | 320 2.5 7.4 NW | 315
5/5/26 - 1040 33.2 40 11.4 26.8 NW | 312 1.1 4.4 NW | 307
5/5/26 - 1035 33.3 40 11.3 26.9 NNW | 332 1.5 5.1 NW | 317
5/5/26 - 1030 33.3 39 11.1 26.8 NNW | 336 3.1 6.5 NW | 311
5/5/26 - 1025 33.5 40 11.7 27.1 NNW | 345 1.3 3.0 NE | 34
5/5/26 - 1020 33.5 41 12.5 27.2 NNW | 346 0.7 2.8 NNW | 348
5/5/26 - 1015 33.9 41 12.4 27.5 NW | 312 0.7 2.4 NNW | 340
5/5/26 - 1010 33.6 40 12.1 27.2 NNW | 329 0.8 2.5 NW | 305
5/5/26 - 1005 33.6 39 11.6 27.1 NNW | 333 0.2 1.3 NNW | 340
5/5/26 - 1000 33.5 40 11.7 27.1 N | 355 0.7 3.4 NNW | 348
5/5/26 - 0955 33.4 40 11.9 27.0 NNW | 330 2.8 5.3 NNW | 335
5/5/26 - 0950 33.5 40 12.0 27.1 NNW | 339 1.4 3.8 NNW | 333
5/5/26 - 0945 33.6 41 12.4 27.3 NW | 316 0.4 2.1 WNW | 300
5/5/26 - 0940 33.5 40 12.1 27.2 NW | 322 0.8 3.2 N | 2
5/5/26 - 0935 33.5 40 11.8 27.1 NW | 315 0.8 3.3 NW | 309
5/5/26 - 0930 33.2 40 11.2 26.8 NW | 312 0.4 1.6 WNW | 302
5/5/26 - 0925 33.1 39 10.6 26.6 NW | 312 0.6 2.9 W | 269
5/5/26 - 0920 32.7 40 10.9 26.4 NNW | 345 0.9 3.3 N | 0
5/5/26 - 0915 32.8 40 11.4 26.6 N | 0 0.0 0.0 NNW | 348
5/5/26 - 0910 32.5 39 10.5 26.2 N | 0 0.0 0.0 S | 190
5/5/26 - 0905 32.2 39 10.1 26.0 N | 0 0.0 0.0 N | 7
5/5/26 - 0900 32.0 39 9.8 25.7 N | 0 0.0 0.0 SSE | 150
5/5/26 - 0855 32.1 39 10.2 25.9 N | 0 0.0 0.0 NE | 37
5/5/26 - 0850 32.1 39 9.9 25.8 N | 0 0.0 0.0 NE | 37
5/5/26 - 0845 32.1 39 10.0 25.9 N | 0 0.0 0.0 NE | 37
5/5/26 - 0840 31.9 42 11.4 26.0 N | 0 0.0 0.0 SW | 236
5/5/26 - 0835 31.9 41 11.1 25.9 N | 0 0.0 0.0 NW | 311
5/5/26 - 0830 31.9 42 11.2 25.9 N | 0 0.0 0.0 NW | 311
5/5/26 - 0825 31.9 41 11.1 25.9 N | 0 0.0 0.0 NW | 311
5/5/26 - 0820 31.8 41 10.9 25.8 N | 0 0.0 0.0 NW | 311
5/5/26 - 0815 31.5 40 9.7 25.4 N | 5 0.0 0.7 N | 8
5/5/26 - 0810 31.5 38 8.8 25.3 N | 6 0.1 0.8 N | 11
5/5/26 - 0805 31.6 39 9.5 25.4 N | 0 0.0 0.0 SSW | 201
5/5/26 - 0800 31.5 38 8.8 25.3 N | 0 0.0 0.0 SSW | 201
5/5/26 - 0755 31.5 37 8.4 25.2 N | 0 0.0 0.0 N | 9
5/5/26 - 0750 31.5 36 7.9 25.1 NNE | 15 0.0 0.9 NNE | 16
5/5/26 - 0745 31.6 36 7.6 25.1 N | 6 0.2 1.2 NNE | 15
5/5/26 - 0740 32.0 36 8.3 25.5 N | 11 0.2 1.2 NNE | 13
5/5/26 - 0735 32.2 37 8.6 25.7 N | 0 0.0 0.0 ESE | 103
5/5/26 - 0730 32.4 37 9.1 25.8 ESE | 105 0.1 0.9 ESE | 102
5/5/26 - 0725 32.5 37 9.0 25.9 SE | 130 0.0 0.9 SSE | 147
5/5/26 - 0720 32.5 38 9.8 26.0 SE | 146 0.0 0.4 SSE | 154
5/5/26 - 0715 32.6 39 10.2 26.2 N | 0 0.0 0.0 SSE | 167
5/5/26 - 0710 32.6 40 11.2 26.4 N | 0 0.0 0.0 SSE | 167
5/5/26 - 0705 32.6 41 11.4 26.4 N | 0 0.0 0.0 WSW | 256
5/5/26 - 0700 32.5 41 11.2 26.3 NW | 320 0.1 1.9 NW | 314
5/5/26 - 0655 32.4 39 10.1 26.0 NNW | 338 0.5 1.5 NW | 309
5/5/26 - 0650 32.6 39 10.1 26.2 SSW | 193 0.1 0.9 SSW | 199
5/5/26 - 0645 32.2 39 9.8 25.9 N | 0 0.0 0.0 S | 189
5/5/26 - 0640 32.2 40 10.5 26.0 S | 178 0.1 0.8 S | 176
5/5/26 - 0635 32.2 39 10.1 25.9 N | 0 0.0 0.0 SSW | 196
5/5/26 - 0630 32.1 38 9.5 25.8 N | 0 0.0 0.0 SSW | 196
5/5/26 - 0625 32.1 39 9.9 25.8 SSW | 195 0.1 1.2 SSW | 195
5/5/26 - 0620 32.2 39 10.0 25.9 N | 0 0.0 0.0 S | 182
5/5/26 - 0615 32.1 37 9.0 25.7 S | 174 0.0 0.0 S | 174
5/5/26 - 0610 32.4 39 10.0 26.0 N | 0 0.0 0.0 SW | 225
5/5/26 - 0605 32.4 40 10.9 26.2 SSW | 198 0.2 1.8 S | 186
5/5/26 - 0600 32.4 40 10.5 26.1 SW | 216 0.3 2.1 SW | 221
5/5/26 - 0555 32.2 40 10.8 26.1 SSW | 205 0.0 0.2 SSW | 206
5/5/26 - 0550 32.2 39 10.2 26.0 SW | 215 0.2 1.6 SW | 224
5/5/26 - 0545 31.9 39 9.7 25.6 N | 0 0.0 0.0 SSW | 212
5/5/26 - 0540 31.9 37 8.8 25.5 S | 190 0.2 1.3 SSW | 193
5/5/26 - 0535 31.9 37 8.8 25.5 SSW | 192 0.1 1.4 S | 187
5/5/26 - 0530 31.8 38 9.0 25.4 SSW | 200 0.1 0.8 SSW | 192
5/5/26 - 0525 31.9 38 9.4 25.6 N | 0 0.0 0.0 SSW | 204
5/5/26 - 0520 31.8 39 9.8 25.6 N | 0 0.0 0.0 WNW | 301
5/5/26 - 0515 31.9 40 10.4 25.8 NW | 316 0.1 1.1 NW | 311
5/5/26 - 0510 31.9 39 10.0 25.7 SSW | 201 0.0 0.1 SSW | 201
5/5/26 - 0505 31.9 40 10.1 25.7 SSW | 201 0.0 0.1 SSW | 201
5/5/26 - 0500 31.9 39 9.6 25.6 SSW | 201 0.1 0.6 SSW | 201
5/5/26 - 0455 32.0 40 10.2 25.8 N | 0 0.0 0.0 WSW | 256
5/5/26 - 0450 32.1 38 9.4 25.7 WSW | 253 0.0 0.4 WSW | 253
5/5/26 - 0445 32.2 38 9.4 25.8 N | 0 0.0 0.0 SW | 217
5/5/26 - 0440 32.1 39 9.8 25.8 N | 0 0.0 0.0 S | 179
5/5/26 - 0435 32.1 40 10.3 25.9 S | 178 0.0 1.0 S | 173
5/5/26 - 0430 32.0 39 9.9 25.8 S | 180 0.1 1.0 S | 178
5/5/26 - 0425 32.0 39 10.1 25.8 N | 0 0.0 0.0 SE | 145
5/5/26 - 0420 32.0 39 10.1 25.8 S | 172 0.1 0.8 SSE | 161
5/5/26 - 0415 31.9 40 10.5 25.8 WSW | 240 0.0 0.6 WSW | 254
5/5/26 - 0410 31.8 40 10.2 25.7 SSE | 150 0.0 0.5 SSE | 156
5/5/26 - 0405 31.8 41 10.6 25.7 N | 0 0.0 0.0 SW | 217
5/5/26 - 0400 31.8 41 10.5 25.7 N | 0 0.0 0.0 S | 172
5/5/26 - 0355 31.6 41 10.4 25.6 N | 0 0.0 0.0 ESE | 122
5/5/26 - 0350 31.8 41 10.8 25.8 N | 0 0.0 0.0 NNW | 341
5/5/26 - 0345 31.9 41 10.8 25.8 NNW | 348 0.0 0.5 NNW | 342
5/5/26 - 0340 31.9 40 10.1 25.7 N | 351 0.1 0.9 N | 351
5/5/26 - 0335 32.0 39 10.1 25.8 N | 0 0.0 0.0 SE | 132
5/5/26 - 0330 31.9 40 10.0 25.7 N | 0 0.0 0.0 SSE | 166
5/5/26 - 0325 31.9 40 10.1 25.7 N | 0 0.0 0.0 S | 169
5/5/26 - 0320 31.9 40 10.2 25.7 N | 0 0.0 0.0 S | 189
5/5/26 - 0315 31.8 40 10.5 25.7 N | 0 0.0 0.0 SW | 215
5/5/26 - 0310 31.8 40 10.3 25.7 NW | 316 0.0 0.4 NW | 311
5/5/26 - 0305 31.6 39 9.5 25.4 N | 350 0.1 0.7 N | 350
5/5/26 - 0300 31.8 37 8.3 25.3 N | 8 0.1 1.0 NNE | 14
5/5/26 - 0255 31.9 39 9.8 25.7 N | 9 0.1 1.2 N | 9
5/5/26 - 0250 32.1 39 10.0 25.8 N | 0 0.0 0.0 NNW | 344
5/5/26 - 0245 32.1 37 8.7 25.6 N | 0 0.0 0.0 NW | 307
5/5/26 - 0240 32.1 36 8.3 25.5 N | 0 0.0 0.0 ESE | 113
5/5/26 - 0235 32.2 36 8.4 25.6 ESE | 119 0.0 1.0 ESE | 110
5/5/26 - 0230 32.0 35 7.6 25.3 N | 11 0.2 0.9 NNE | 12
5/5/26 - 0225 32.1 36 8.1 25.5 NNE | 14 0.1 1.2 NNE | 13
5/5/26 - 0220 32.2 37 8.7 25.7 NNE | 14 0.2 1.7 NNE | 12
5/5/26 - 0215 32.2 37 8.8 25.7 NNE | 12 0.1 1.4 N | 10
5/5/26 - 0210 32.4 36 8.5 25.7 N | 9 0.4 1.7 N | 8
5/5/26 - 0205 32.4 39 9.9 26.0 NNE | 15 0.0 0.4 NNE | 14
5/5/26 - 0200 32.4 38 9.8 26.0 NW | 311 0.0 0.3 NW | 311
5/5/26 - 0155 32.2 35 7.8 25.6 NNW | 332 0.8 2.3 NW | 314
5/5/26 - 0150 32.4 34 7.3 25.5 NNE | 16 0.6 2.7 NNE | 15
5/5/26 - 0145 32.7 35 7.8 25.8 N | 358 1.3 2.4 N | 0
5/5/26 - 0140 33.1 35 8.6 26.2 N | 10 0.3 2.1 N | 11
5/5/26 - 0135 33.1 35 8.5 26.2 N | 0 0.0 0.0 NNE | 29
5/5/26 - 0130 33.1 35 8.4 26.2 N | 0 0.0 0.0 NNE | 29
5/5/26 - 0125 33.1 36 8.8 26.2 N | 0 0.0 0.0 NNE | 28
5/5/26 - 0120 32.9 38 10.3 26.4 N | 0 0.0 0.0 NNW | 344
5/5/26 - 0115 33.0 41 11.6 26.7 N | 0 0.0 0.0 NNW | 330
5/5/26 - 0110 33.1 39 11.1 26.7 N | 0 0.0 0.0 NW | 323
5/5/26 - 0105 33.1 38 10.4 26.5 N | 0 0.0 0.0 S | 174
5/5/26 - 0100 33.2 40 11.6 26.8 N | 0 0.0 0.0 S | 175
5/5/26 - 0055 33.2 40 11.6 26.8 N | 0 0.0 0.0 WNW | 294
5/5/26 - 0050 33.3 40 11.4 26.9 N | 0 0.0 0.0 WNW | 295
5/5/26 - 0045 33.3 37 10.1 26.6 N | 0 0.0 0.0 WNW | 295
5/5/26 - 0040 33.3 38 10.4 26.7 N | 0 0.0 0.0 WNW | 295
5/5/26 - 0035 33.4 39 11.0 26.9 WNW | 295 0.0 0.1 WNW | 295
5/5/26 - 0030 33.3 39 10.9 26.8 NW | 315 0.3 1.4 NW | 326
5/5/26 - 0025 33.4 39 10.9 26.9 WNW | 301 0.0 0.3 WNW | 301
5/5/26 - 0020 33.3 40 11.4 26.9 NW | 308 0.1 0.6 NW | 306
5/5/26 - 0015 33.3 39 10.9 26.8 WNW | 291 0.0 0.6 WNW | 282
5/5/26 - 0010 33.3 37 9.7 26.6 N | 0 0.0 0.0 N | 0
5/5/26 - 0005 33.2 34 7.7 26.1 N | 0 0.0 0.0 N | 0
5/5/26 - 0000 33.2 36 9.3 26.4 N | 0 0.0 0.0 N | 0
5/4/26 - 2355 33.2 39 10.9 26.7 N | 0 0.0 0.0 W | 274
5/4/26 - 2350 33.2 39 11.0 26.7 WNW | 293 0.1 1.1 NW | 304
5/4/26 - 2345 33.3 40 11.4 26.8 WNW | 299 0.0 0.6 WNW | 294
5/4/26 - 2340 33.3 38 10.7 26.7 NW | 306 0.0 0.5 WNW | 302
5/4/26 - 2335 33.3 36 9.3 26.5 NW | 322 1.2 2.7 NW | 320
5/4/26 - 2330 33.4 36 9.2 26.6 NW | 319 2.3 4.2 NW | 324
5/4/26 - 2325 33.5 35 8.9 26.6 N | 4 1.3 2.4 NW | 314
5/4/26 - 2320 33.6 36 9.8 26.8 NNE | 15 0.5 3.0 NE | 35
5/4/26 - 2315 33.5 37 10.1 26.8 N | 0 0.0 0.0 SE | 133
5/4/26 - 2310 33.5 38 10.8 26.9 N | 0 0.0 0.0 S | 180
5/4/26 - 2305 33.8 39 11.3 27.2 S | 190 0.0 0.6 S | 186
5/4/26 - 2300 34.0 39 11.7 27.4 WNW | 282 0.1 1.1 W | 274
5/4/26 - 2255 34.0 38 11.3 27.3 WSW | 250 0.0 0.5 WSW | 250
5/4/26 - 2250 34.1 37 10.7 27.3 WSW | 250 0.0 0.8 WSW | 248
5/4/26 - 2245 34.2 36 10.3 27.3 NW | 315 0.5 2.5 NW | 310
5/4/26 - 2240 34.5 36 10.4 27.4 SSE | 155 0.0 0.1 ESE | 103
5/4/26 - 2235 34.5 35 9.5 27.3 SSE | 148 2.9 11.2 SSE | 150
5/4/26 - 2230 34.0 35 9.3 26.9 SSE | 160 3.4 10.2 S | 183
5/4/26 - 2225 33.8 36 9.4 26.8 S | 183 3.9 11.0 SSW | 192
5/4/26 - 2220 33.6 36 9.3 26.7 S | 185 5.8 12.6 S | 173
5/4/26 - 2215 33.9 35 9.3 26.9 SSE | 156 4.9 12.0 S | 182
5/4/26 - 2210 33.9 35 9.3 26.9 SSE | 152 4.6 11.3 SSE | 164
5/4/26 - 2205 34.4 35 9.8 27.2 S | 176 5.9 11.9 SSW | 194
5/4/26 - 2200 34.6 35 9.9 27.4 SSW | 198 2.9 7.7 SSW | 202
5/4/26 - 2155 34.5 36 10.1 27.4 S | 179 2.5 8.1 SSE | 167
5/4/26 - 2150 34.4 36 10.0 27.3 S | 184 2.1 8.6 SSW | 207
5/4/26 - 2145 34.4 35 9.7 27.2 S | 173 2.8 8.3 SSW | 204
5/4/26 - 2140 34.7 35 9.9 27.5 SSW | 201 1.7 4.8 SSW | 204
5/4/26 - 2135 34.6 36 10.2 27.5 S | 185 1.3 4.5 SSW | 203
5/4/26 - 2130 34.7 35 10.0 27.5 S | 172 3.5 13.3 S | 180
5/4/26 - 2125 34.5 35 9.7 27.3 S | 181 3.4 9.2 SSW | 199
5/4/26 - 2120 34.6 35 9.5 27.4 SE | 140 1.8 7.2 SSE | 153
5/4/26 - 2115 34.8 34 9.6 27.5 NNE | 22 0.5 2.4 NNE | 30
5/4/26 - 2110 34.5 35 9.4 27.2 N | 351 1.5 4.1 NW | 315
5/4/26 - 2105 34.6 35 10.0 27.4 N | 355 1.5 5.1 NW | 308
5/4/26 - 2100 34.5 35 9.9 27.3 NNE | 27 0.1 1.0 NE | 40
5/4/26 - 2055 34.4 35 9.6 27.2 NW | 304 0.8 2.9 NW | 314
5/4/26 - 2050 34.5 34 8.8 27.1 SSW | 212 1.5 3.9 S | 175
5/4/26 - 2045 34.7 34 8.9 27.3 ESE | 110 1.7 5.1 SSE | 153
5/4/26 - 2040 34.7 34 9.2 27.4 E | 86 1.4 7.9 SSE | 151
5/4/26 - 2035 34.8 35 9.9 27.6 SE | 130 1.5 6.2 SE | 125
5/4/26 - 2030 34.7 36 10.4 27.6 N | 10 0.1 1.4 N | 9
5/4/26 - 2025 34.7 34 9.1 27.4 NNE | 17 0.4 2.0 N | 5
5/4/26 - 2020 34.5 36 10.5 27.5 NW | 312 0.9 3.3 WNW | 296
5/4/26 - 2015 34.7 36 10.4 27.6 NNW | 340 2.3 4.8 NW | 305
5/4/26 - 2010 35.2 35 10.1 27.8 N | 3 0.7 3.1 NNE | 16
5/4/26 - 2005 35.4 35 10.3 28.0 NNE | 31 0.4 2.4 NNE | 16
5/4/26 - 2000 35.3 34 9.4 27.8 NNE | 17 0.1 2.3 ENE | 75
Max 44.3 42 19.6 35.3 - 6.3 13.9 -
Avg 35.4 38 12.2 28.4 - 1.3 3.8 -
Min 31.5 34 7.3 25.1 - 0.0 0.0 -